Aviation Digital Data Service (ADDS)

Output produced by METARs form (1907 UTC 25 June 2017)
found at http://www.aviationweather.gov/adds/metars/
 
MHSC 251858Z AUTO 32009KT 9999 FEW065 SCT120 SCT140 BKN170 BKN200 33/25 A2999 RMK AO2 SLP107 T03250252 CHINO RWY17 $
TAF MHSC 251305Z 2513/2619 VRB06KT 9999 SCT040 QNH2999INS 
     BECMG 2517/2518 36009KT 9999 SCT050 QNH2993INS 
     BECMG 2604/2605 VRB06KT 9999 VCTS SCT030CB BKN050 QNH2998INS 
     TEMPO 2606/2609 8000 -TSRA BKN030CB 
     BECMG 2611/2612 VRB06KT 9999 SCT050 QNH2993INS TX34/2520Z TN22/2611Z
       
MHLC 251900Z 02015KT 9999 SCT026CB SCT200 32/24 Q1013 A2992 NOSIG
TAF MHLC 251625Z 2518/2618 02006KT 9999 SCT026 TX33/2519Z TN23/2612Z 
     TEMPO 2522/2604 08007KT 5000 -TSRA SCT024CB SCT080 
     BECMG 2604/2606 16003KT 9999 NSW FEW026 SCT080 
     BECMG 2615/2617 01007KT SCT028TCU
       
MHRO 251800Z 09020KT 9999 FEW025 SCT200 33/24 Q1015 A2997 NOSIG
MHLM 251900Z 35008KT 9999 BKN025TCU BKN250 32/28 Q1013 A2992 NOSIG
TAF MHLM 251625Z 2518/2618 35008KT 9999 SCT028 TX35/2520Z TN24/2612Z 
     TEMPO 2522/2604 7000 -RA FEW026CB SCT028TCU 
     BECMG 2604/2606 20003KT 9999 NSW SCT024 SCT080 
     BECMG 2614/2616 01006KT SCT026
       
MHTG 251900Z 36006KT 9999 BKN030TCU BKN250 26/17 Q1019 A3009 NOSIG
MHTE 251900Z 08006KT 9999 BKN028CB BKN080 32/26 Q1011 CB SE SW W TCU ALL HZ